Terminal Aerodrome Forecast
Issued by NWS Caribou, ME

Home | Current Version | Previous Version | Text Only | Print | Product List | Glossary On
Versions: 1 2 3 4 5 6 7 8 9 10 11 12 13 14 15 16 17 18
000
FTUS41 KCAR 300859 AAA
TAFBGR
TAF AMD
KBGR 300859Z 3009/3106 00000KT P6SM SCT025 OVC070
     FM300930 VRB03KT 3SM -SN OVC025
     FM301200 13007KT 1SM -SN OVC015
     FM301500 14007KT 1/2SM SN FG OVC002
     FM301800 12007KT 1/4SM +SN FG VV001=

USA.gov is the U.S. government's official web portal to all federal, state and local government web resources and services.